Time;durP1;ratioP1;P1;durP2;ratioP2;P2;SDS_P1;SDS_P2;PMS_P1;PMS_P2;Temp;Humidity;BMP_temperature;BMP_pressure;BME280_temperature;BME280_humidity;BME280_pressure;Samples;Min_cycle;Max_cycle;Signal;HPM_P1;HPM_P2
2022/10/15 00:01:06;;;;;;;1.07;0.90;;;;;;;12.96;100.00;95988.88;5022725;28;20207;-81
2022/10/15 00:03:36;;;;;;;1.50;0.97;;;;;;;13.04;100.00;95978.41;5045536;28;20217;-81
2022/10/15 00:06:09;;;;;;;3.67;1.20;;;;;;;12.92;100.00;95983.16;5026544;28;20207;-81
2022/10/15 00:08:37;;;;;;;0.90;0.87;;;;;;;13.04;100.00;95980.28;5028820;28;20203;-81
2022/10/15 00:11:10;;;;;;;2.87;1.00;;;;;;;13.02;100.00;95964.28;5030907;28;20345;-81
2022/10/15 00:13:38;;;;;;;6.10;0.90;;;;;;;13.06;100.00;95976.25;5053406;28;20310;-82
2022/10/15 00:16:09;;;;;;;2.17;0.90;;;;;;;13.07;100.00;95977.91;5026350;28;20255;-82
2022/10/15 00:18:36;;;;;;;3.03;1.17;;;;;;;13.11;100.00;95983.63;5021103;28;20299;-82
2022/10/15 00:21:07;;;;;;;1.23;0.90;;;;;;;13.08;100.00;95957.03;5023397;28;20237;-81
2022/10/15 00:23:35;;;;;;;2.30;0.80;;;;;;;13.07;100.00;95948.09;5041679;28;20215;-82
2022/10/15 00:26:05;;;;;;;1.33;0.90;;;;;;;13.09;100.00;95953.25;5024969;28;20283;-81
2022/10/15 00:28:33;;;;;;;2.63;1.13;;;;;;;13.09;100.00;95947.84;5026653;28;20215;-81
2022/10/15 00:31:05;;;;;;;6.40;1.27;;;;;;;13.10;100.00;95949.47;5026793;28;20238;-81
2022/10/15 00:33:32;;;;;;;1.07;0.90;;;;;;;13.17;100.00;95944.69;5019803;28;20211;-81
2022/10/15 00:36:04;;;;;;;2.97;1.13;;;;;;;13.13;100.00;95943.53;5043127;28;20246;-81
2022/10/15 00:38:34;;;;;;;5.07;2.00;;;;;;;13.10;100.00;95947.56;5023014;28;20248;-81
2022/10/15 00:41:01;;;;;;;2.97;1.90;;;;;;;13.12;100.00;95947.31;5025496;28;20227;-82
2022/10/15 00:43:40;;;;;;;2.33;0.97;;;;;;;13.24;100.00;95945.31;5024654;28;20223;-81
2022/10/15 00:46:17;;;;;;;6.90;1.00;;;;;;;13.27;100.00;95934.75;5039505;28;20202;-81
2022/10/15 00:48:48;;;;;;;0.70;0.70;;;;;;;13.24;100.00;95934.47;5038048;28;20198;-81
2022/10/15 00:51:18;;;;;;;2.47;1.07;;;;;;;13.18;100.00;95943.63;5042121;28;20207;-81
2022/10/15 00:53:48;;;;;;;0.80;0.80;;;;;;;13.18;100.00;95963.38;5020332;28;20207;-81
2022/10/15 00:56:17;;;;;;;2.10;0.80;;;;;;;13.17;100.00;95960.97;5025356;28;20211;-82
2022/10/15 00:58:44;;;;;;;2.40;1.03;;;;;;;13.19;100.00;95951.47;5042342;28;20260;-81
2022/10/15 01:01:12;;;;;;;2.20;0.80;;;;;;;13.21;100.00;95968.31;5026015;28;20211;-81
2022/10/15 01:03:40;;;;;;;4.57;0.83;;;;;;;13.22;100.00;95986.22;5020763;28;20195;-82
2022/10/15 01:06:08;;;;;;;1.10;0.97;;;;;;;13.19;100.00;95985.91;5024033;28;20226;-81
2022/10/15 01:08:35;;;;;;;2.73;0.90;;;;;;;13.20;100.00;95984.81;5037297;28;20304;-81
2022/10/15 01:11:24;;;;;;;2.60;0.90;;;;;;;13.23;100.00;95987.84;5042303;28;20230;-81
2022/10/15 01:14:07;;;;;;;1.40;1.00;;;;;;;13.21;100.00;95981.88;5033447;28;20203;-81
2022/10/15 01:16:45;;;;;;;1.10;1.00;;;;;;;13.22;100.00;95988.09;5023018;28;20242;-81
2022/10/15 01:19:28;;;;;;;2.93;1.30;;;;;;;13.20;100.00;95992.97;5029504;28;20214;-81
2022/10/15 01:22:05;;;;;;;1.83;1.10;;;;;;;13.22;100.00;96007.91;5031676;28;20325;-81
2022/10/15 01:24:57;;;;;;;3.67;1.40;;;;;;;13.23;100.00;96008.72;5035654;28;20213;-81
2022/10/15 01:27:42;;;;;;;1.20;1.00;;;;;;;13.21;100.00;96021.72;5042257;28;20297;-81
2022/10/15 01:30:25;;;;;;;3.17;1.03;;;;;;;13.24;100.00;96022.03;5022312;28;20196;-81
2022/10/15 01:33:21;;;;;;;1.67;1.20;;;;;;;13.15;100.00;96007.28;5026295;28;20207;-81
2022/10/15 01:35:51;;;;;;;3.20;1.30;;;;;;;13.13;100.00;96003.16;5041372;28;20210;-81
2022/10/15 01:38:26;;;;;;;2.50;1.20;;;;;;;13.15;100.00;96011.91;5038459;28;20203;-81
2022/10/15 01:40:58;;;;;;;3.57;1.10;;;;;;;13.13;100.00;96019.44;5024405;28;20205;-81
2022/10/15 01:43:34;;;;;;;2.90;1.30;;;;;;;13.19;100.00;96015.72;5022927;28;20319;-81
2022/10/15 01:46:29;;;;;;;4.00;1.50;;;;;;;13.11;100.00;95999.88;5022050;28;20297;-81
2022/10/15 01:49:04;;;;;;;2.80;1.40;;;;;;;13.00;100.00;95988.13;5022774;28;20234;-81
2022/10/15 01:51:34;;;;;;;1.20;1.10;;;;;;;12.99;100.00;95988.38;5023920;28;20195;-81
2022/10/15 01:54:06;;;;;;;4.27;1.30;;;;;;;13.10;100.00;95990.13;5024310;28;20261;-81
2022/10/15 01:56:36;;;;;;;2.50;1.10;;;;;;;13.05;100.00;95985.47;5023105;28;20223;-81
2022/10/15 01:59:05;;;;;;;2.70;1.10;;;;;;;13.02;100.00;95958.03;5040397;28;20214;-81
2022/10/15 02:01:34;;;;;;;2.10;1.17;;;;;;;13.13;100.00;95970.63;5028164;28;20199;-81
2022/10/15 02:04:01;;;;;;;1.10;1.00;;;;;;;13.16;100.00;95967.44;5022084;28;20215;-82
2022/10/15 02:06:33;;;;;;;4.10;1.30;;;;;;;13.16;100.00;95960.13;5036985;28;20194;-81
2022/10/15 02:09:15;;;;;;;2.70;1.13;;;;;;;13.19;100.00;95977.75;5035312;28;20203;-82
2022/10/15 02:11:57;;;;;;;2.00;1.10;;;;;;;13.18;100.00;95984.28;5029643;28;20248;-81
2022/10/15 02:14:30;;;;;;;1.33;1.10;;;;;;;13.10;100.00;95988.22;5027851;28;20207;-81
2022/10/15 02:17:06;;;;;;;1.77;1.10;;;;;;;13.11;100.00;95986.31;5023280;28;20308;-81
2022/10/15 02:19:42;;;;;;;2.07;1.20;;;;;;;13.08;100.00;95984.97;5033238;28;20296;-81
2022/10/15 02:22:15;;;;;;;1.10;1.00;;;;;;;13.11;100.00;96002.59;5030012;28;20238;-81
2022/10/15 02:24:51;;;;;;;3.23;1.10;;;;;;;13.09;100.00;95993.91;5022032;28;20276;-81
2022/10/15 02:27:21;;;;;;;1.93;1.00;;;;;;;13.07;100.00;95993.34;5028070;28;20202;-81
2022/10/15 02:29:50;;;;;;;4.17;1.30;;;;;;;13.09;100.00;95988.50;5028378;28;20209;-80
2022/10/15 02:32:21;;;;;;;1.80;1.20;;;;;;;13.04;100.00;95980.28;5026566;28;20199;-81
2022/10/15 02:34:50;;;;;;;1.33;1.20;;;;;;;13.02;100.00;95979.72;5023605;28;20265;-81
2022/10/15 02:37:22;;;;;;;1.90;1.50;;;;;;;13.05;100.00;95982.75;5025420;28;20236;-81
2022/10/15 02:39:50;;;;;;;3.30;1.53;;;;;;;13.12;100.00;95974.41;5026032;28;20310;-81
2022/10/15 02:42:18;;;;;;;2.13;1.20;;;;;;;13.08;100.00;95962.47;5042283;28;20257;-81
2022/10/15 02:44:48;;;;;;;4.13;1.20;;;;;;;13.08;100.00;95959.75;5039863;28;20200;-80
2022/10/15 02:47:15;;;;;;;4.00;2.07;;;;;;;13.16;100.00;95959.31;5045449;28;20293;-81
2022/10/15 02:49:45;;;;;;;3.57;2.50;;;;;;;13.05;100.00;95942.09;5019437;28;20207;-81
2022/10/15 02:52:12;;;;;;;1.90;1.70;;;;;;;13.08;100.00;95936.16;5028092;28;20201;-81
2022/10/15 02:54:40;;;;;;;2.73;1.23;;;;;;;13.02;100.00;95936.34;5029118;28;20304;-81
2022/10/15 02:57:07;;;;;;;2.63;1.27;;;;;;;12.89;100.00;95911.31;5026974;28;20250;-81
2022/10/15 02:59:35;;;;;;;1.70;1.60;;;;;;;12.86;100.00;95914.53;5029215;28;20207;-81
2022/10/15 03:02:02;;;;;;;1.87;1.30;;;;;;;12.94;100.00;95928.69;5026054;28;20203;-81
2022/10/15 03:04:31;;;;;;;2.20;1.20;;;;;;;12.96;100.00;95923.84;5022355;28;20208;-81
2022/10/15 03:07:00;;;;;;;1.37;1.20;;;;;;;12.97;100.00;95925.47;5020543;28;20241;-81
2022/10/15 03:09:27;;;;;;;5.13;1.40;;;;;;;12.89;100.00;95914.03;5042506;28;20211;-81
2022/10/15 03:11:54;;;;;;;2.63;1.10;;;;;;;12.94;100.00;95917.84;5027038;28;20278;-81
2022/10/15 03:14:22;;;;;;;1.30;1.20;;;;;;;12.99;100.00;95915.19;5026561;28;20207;-81
2022/10/15 03:16:49;;;;;;;2.43;1.63;;;;;;;12.99;100.00;95902.47;5027618;28;20241;-81
2022/10/15 03:19:17;;;;;;;6.87;1.17;;;;;;;12.92;100.00;95901.88;5024004;28;20257;-81
2022/10/15 03:21:47;;;;;;;3.63;1.30;;;;;;;13.00;100.00;95912.25;5022289;28;20239;-81
2022/10/15 03:24:18;;;;;;;1.67;1.30;;;;;;;12.90;100.00;95895.88;5023204;28;20210;-81
2022/10/15 03:26:45;;;;;;;2.20;1.53;;;;;;;12.96;100.00;95904.88;5024264;28;20200;-81
2022/10/15 03:29:12;;;;;;;2.50;1.07;;;;;;;12.95;100.00;95909.47;5021432;28;20245;-81
2022/10/15 03:32:03;;;;;;;4.10;1.10;;;;;;;12.92;100.00;95923.53;5022439;28;20205;-81
2022/10/15 03:34:30;;;;;;;1.63;1.03;;;;;;;12.88;100.00;95914.28;5023639;28;20218;-80
2022/10/15 03:36:57;;;;;;;3.27;1.43;;;;;;;12.90;100.00;95922.97;5025996;28;20226;-81
2022/10/15 03:39:26;;;;;;;2.37;1.03;;;;;;;12.91;100.00;95919.19;5040941;28;20234;-81
2022/10/15 03:41:56;;;;;;;3.53;1.30;;;;;;;12.95;100.00;95933.03;5035202;28;20205;-82
2022/10/15 03:44:30;;;;;;;1.50;1.20;;;;;;;12.96;100.00;95942.81;5026457;28;20233;-81
2022/10/15 03:47:24;;;;;;;3.77;2.10;;;;;;;12.99;100.00;95953.16;5025960;28;20266;-81
2022/10/15 03:49:51;;;;;;;1.93;1.43;;;;;;;12.87;100.00;95951.38;5024637;28;20211;-81
2022/10/15 03:52:19;;;;;;;1.00;0.97;;;;;;;12.83;100.00;95952.97;5022979;28;20311;-82
2022/10/15 03:54:49;;;;;;;2.40;1.10;;;;;;;12.81;100.00;95951.59;5020473;28;20207;-81
2022/10/15 03:57:19;;;;;;;3.13;0.97;;;;;;;12.89;100.00;95959.25;5026581;28;20223;-81
2022/10/15 03:59:52;;;;;;;3.23;0.97;;;;;;;12.86;100.00;95963.28;5021884;28;20266;-81
2022/10/15 04:02:21;;;;;;;1.47;1.10;;;;;;;12.83;100.00;95961.13;5024090;28;20211;-81
2022/10/15 04:04:51;;;;;;;3.47;1.03;;;;;;;12.89;100.00;95965.50;5024847;28;20207;-81
2022/10/15 04:07:18;;;;;;;5.67;1.20;;;;;;;12.80;100.00;95950.78;5027715;28;20214;-82
2022/10/15 04:09:46;;;;;;;4.83;1.67;;;;;;;12.77;100.00;95956.69;5019417;28;20349;-82
2022/10/15 04:12:41;;;;;;;4.93;1.40;;;;;;;12.69;100.00;95957.13;5025304;28;20219;-81
2022/10/15 04:15:14;;;;;;;6.20;1.40;;;;;;;12.70;100.00;95966.06;5040045;28;20199;-81
2022/10/15 04:17:48;;;;;;;7.40;3.67;;;;;;;12.62;100.00;95961.94;5022763;28;20222;-82
2022/10/15 04:20:16;;;;;;;3.60;1.10;;;;;;;12.58;100.00;95949.97;5043635;28;20235;-81
2022/10/15 04:22:45;;;;;;;3.00;1.00;;;;;;;12.60;100.00;95966.78;5027391;28;20201;-81
2022/10/15 04:25:13;;;;;;;2.23;1.00;;;;;;;12.56;100.00;95965.66;5044875;28;20202;-81
2022/10/15 04:27:42;;;;;;;2.93;1.13;;;;;;;12.55;100.00;95974.84;5025146;28;20188;-82
2022/10/15 04:30:13;;;;;;;3.07;0.97;;;;;;;12.58;100.00;95974.34;5025313;28;20203;-81
2022/10/15 04:32:51;;;;;;;2.20;1.03;;;;;;;12.57;100.00;95971.88;5029028;28;20218;-82
2022/10/15 04:35:18;;;;;;;4.37;1.40;;;;;;;12.49;100.00;95951.50;5027661;28;20214;-82
2022/10/15 04:38:04;;;;;;;4.97;1.27;;;;;;;12.45;100.00;95943.03;5022912;28;20302;-85
2022/10/15 04:40:59;;;;;;;1.50;1.40;;;;;;;12.49;100.00;95938.78;5026204;28;20214;-85
2022/10/15 04:43:32;;;;;;;1.67;1.07;;;;;;;12.55;100.00;95950.47;5023299;28;20210;-85
2022/10/15 04:46:09;;;;;;;2.37;1.20;;;;;;;12.52;100.00;95940.13;5040255;28;20206;-84
2022/10/15 04:48:41;;;;;;;5.00;2.00;;;;;;;12.56;100.00;95944.00;5024637;28;20222;-84
2022/10/15 04:51:14;;;;;;;1.50;1.40;;;;;;;12.47;100.00;95948.19;5026619;28;20195;-85
2022/10/15 04:54:04;;;;;;;2.50;1.63;;;;;;;12.32;100.00;95953.44;5024648;28;20218;-84
2022/10/15 04:56:32;;;;;;;5.17;1.47;;;;;;;12.27;100.00;95945.22;5022278;28;20210;-84
2022/10/15 04:59:01;;;;;;;4.43;1.50;;;;;;;12.31;100.00;95949.09;5024080;28;20237;-84
2022/10/15 05:01:31;;;;;;;2.20;1.50;;;;;;;12.30;100.00;95944.72;5023132;28;20206;-84
2022/10/15 05:04:04;;;;;;;3.50;1.30;;;;;;;12.35;100.00;95942.06;5025117;28;20214;-84
2022/10/15 05:06:34;;;;;;;2.23;1.50;;;;;;;12.31;100.00;95941.78;5022062;28;20203;-85
2022/10/15 05:09:14;;;;;;;1.63;1.53;;;;;;;12.34;100.00;95948.56;5039012;28;20211;-84
2022/10/15 05:11:47;;;;;;;5.37;1.50;;;;;;;12.44;100.00;95956.81;5024525;28;20214;-84
2022/10/15 05:14:16;;;;;;;2.27;1.50;;;;;;;12.41;100.00;95946.50;5039562;28;20285;-85
2022/10/15 05:16:50;;;;;;;9.13;1.40;;;;;;;12.39;100.00;95943.22;5028195;28;20245;-84
2022/10/15 05:19:17;;;;;;;1.70;1.27;;;;;;;12.21;100.00;95921.88;5028392;28;20274;-84
2022/10/15 05:21:45;;;;;;;1.43;1.20;;;;;;;12.29;100.00;95943.91;5026869;28;20222;-84
2022/10/15 05:24:22;;;;;;;1.07;0.97;;;;;;;12.18;100.00;95934.00;5025523;28;20202;-84
2022/10/15 05:26:55;;;;;;;4.50;1.27;;;;;;;12.20;100.00;95947.28;5024936;28;20212;-84
2022/10/15 05:29:24;;;;;;;2.20;1.20;;;;;;;12.17;100.00;95947.78;5025664;28;20222;-84
2022/10/15 05:31:51;;;;;;;3.53;1.87;;;;;;;12.13;100.00;95944.78;5025647;28;20253;-84
2022/10/15 05:34:25;;;;;;;2.33;1.20;;;;;;;12.11;100.00;95947.72;5022204;28;21720;-84
2022/10/15 05:36:59;;;;;;;5.27;1.20;;;;;;;12.18;100.00;95957.53;5025167;28;20203;-85
2022/10/15 05:39:27;;;;;;;2.50;1.57;;;;;;;12.09;100.00;95957.16;5029204;28;20261;-84
2022/10/15 05:41:54;;;;;;;1.30;1.20;;;;;;;12.07;100.00;95957.44;5023493;28;20206;-84
2022/10/15 05:44:34;;;;;;;1.77;1.37;;;;;;;12.18;100.00;95965.66;5036473;28;20639;-83
2022/10/15 05:47:01;;;;;;;2.03;1.10;;;;;;;12.14;100.00;95973.47;5018140;28;20211;-83
2022/10/15 05:49:28;;;;;;;3.00;1.27;;;;;;;12.10;100.00;95973.16;5029600;28;20275;-83
2022/10/15 05:52:10;;;;;;;4.07;1.33;;;;;;;12.08;100.00;95982.56;5047003;28;20202;-83
2022/10/15 05:54:56;;;;;;;1.50;1.00;;;;;;;12.05;100.00;95975.78;5025597;28;20206;-84
2022/10/15 05:57:24;;;;;;;1.40;1.30;;;;;;;12.11;100.00;95992.91;5025011;28;20202;-81
2022/10/15 05:59:52;;;;;;;3.27;1.50;;;;;;;12.10;100.00;95997.50;5029504;28;20206;-81
2022/10/15 06:02:19;;;;;;;2.07;1.30;;;;;;;12.05;100.00;95992.03;5024185;28;20248;-82
2022/10/15 06:04:47;;;;;;;2.73;1.40;;;;;;;12.13;100.00;96013.25;5027189;28;20214;-81
2022/10/15 06:07:15;;;;;;;1.80;1.03;;;;;;;12.16;100.00;96016.53;5029234;28;20198;-81
2022/10/15 06:09:42;;;;;;;7.60;1.97;;;;;;;12.10;100.00;96005.63;5019001;28;20277;-81
2022/10/15 06:12:09;;;;;;;1.13;1.03;;;;;;;12.12;100.00;96017.03;5025490;28;20207;-80
2022/10/15 06:14:36;;;;;;;2.67;1.30;;;;;;;12.22;100.00;96019.06;5024006;28;20211;-81
2022/10/15 06:17:06;;;;;;;3.93;1.20;;;;;;;12.20;100.00;96009.56;5030683;28;20206;-81
2022/10/15 06:19:33;;;;;;;1.60;1.27;;;;;;;12.25;100.00;96029.38;5029994;28;20228;-80
2022/10/15 06:22:00;;;;;;;2.03;1.40;;;;;;;12.19;100.00;96011.44;5037149;28;20349;-81
2022/10/15 06:24:28;;;;;;;5.87;1.60;;;;;;;12.21;100.00;96014.72;5023669;28;20301;-81
2022/10/15 06:26:55;;;;;;;2.90;1.37;;;;;;;12.25;100.00;96017.75;5023095;28;20285;-81
2022/10/15 06:29:22;;;;;;;1.37;1.27;;;;;;;12.23;100.00;96009.88;5028578;28;20213;-83
2022/10/15 06:31:50;;;;;;;3.30;1.40;;;;;;;12.31;100.00;96016.75;5024269;28;20206;-83
2022/10/15 06:34:18;;;;;;;2.97;1.70;;;;;;;12.32;100.00;96015.69;5022926;28;20207;-83
2022/10/15 06:36:45;;;;;;;2.20;1.67;;;;;;;12.33;100.00;96006.50;5021943;28;20210;-83
2022/10/15 06:39:12;;;;;;;2.37;1.47;;;;;;;12.38;100.00;96012.81;5027597;28;20219;-83
2022/10/15 06:41:41;;;;;;;3.73;1.47;;;;;;;12.37;100.00;96015.75;5037018;28;20288;-83
2022/10/15 06:44:08;;;;;;;2.10;1.90;;;;;;;12.31;100.00;96003.22;5022281;28;20200;-83
2022/10/15 06:46:36;;;;;;;10.43;6.20;;;;;;;12.31;100.00;96011.34;5010684;28;20206;-82
2022/10/15 06:49:04;;;;;;;5.20;3.80;;;;;;;12.28;100.00;96018.06;5034163;28;20211;-82
2022/10/15 06:51:33;;;;;;;5.20;2.90;;;;;;;12.41;100.00;96033.16;5027730;28;20265;-83
2022/10/15 06:54:00;;;;;;;2.27;2.00;;;;;;;12.35;100.00;96013.28;5023547;28;20202;-83
2022/10/15 06:56:27;;;;;;;4.93;2.10;;;;;;;12.40;100.00;96020.69;5028114;28;20206;-83
2022/10/15 06:58:54;;;;;;;3.63;1.80;;;;;;;12.46;100.00;96031.31;5022730;28;20258;-83
2022/10/15 07:01:21;;;;;;;5.20;1.57;;;;;;;12.46;100.00;96025.91;5028781;28;20198;-83
2022/10/15 07:03:49;;;;;;;4.13;1.30;;;;;;;12.59;100.00;96045.59;5026834;28;20221;-83
2022/10/15 07:06:17;;;;;;;5.33;1.60;;;;;;;12.61;100.00;96040.72;5024300;28;20294;-83
2022/10/15 07:08:46;;;;;;;3.63;1.40;;;;;;;12.62;100.00;96034.25;5050275;28;20217;-83
2022/10/15 07:11:13;;;;;;;3.10;1.40;;;;;;;12.66;100.00;96041.63;5027516;28;20231;-83
2022/10/15 07:13:40;;;;;;;2.10;1.40;;;;;;;12.68;100.00;96044.06;5039754;28;20199;-83
2022/10/15 07:16:10;;;;;;;1.63;1.53;;;;;;;12.71;100.00;96051.69;5033784;28;20255;-83
2022/10/15 07:18:38;;;;;;;9.63;1.73;;;;;;;12.77;100.00;96067.75;5024161;28;20215;-83
2022/10/15 07:21:06;;;;;;;4.77;1.80;;;;;;;12.82;100.00;96070.56;5040247;28;20244;-83
2022/10/15 07:23:34;;;;;;;3.63;1.60;;;;;;;12.80;100.00;96058.31;5018707;28;20194;-83
2022/10/15 07:26:02;;;;;;;2.20;1.63;;;;;;;12.92;100.00;96053.63;5031485;28;20214;-82
2022/10/15 07:28:29;;;;;;;3.03;1.97;;;;;;;12.88;100.00;96066.84;5026481;28;20250;-82
2022/10/15 07:31:01;;;;;;;3.23;1.50;;;;;;;12.93;100.00;96076.13;5036720;28;20195;-82
2022/10/15 07:33:28;;;;;;;3.37;1.97;;;;;;;12.94;100.00;96073.13;5026755;28;20294;-82
2022/10/15 07:35:59;;;;;;;2.33;1.83;;;;;;;12.99;100.00;96072.38;5028703;28;20222;-83
2022/10/15 07:38:26;;;;;;;3.03;1.70;;;;;;;12.92;100.00;96047.38;5031944;28;20226;-83
2022/10/15 07:40:57;;;;;;;6.63;1.60;;;;;;;13.02;100.00;96061.84;5039852;28;20210;-83
2022/10/15 07:43:25;;;;;;;2.20;1.80;;;;;;;12.98;100.00;96059.91;5035398;28;20241;-83
2022/10/15 07:45:52;;;;;;;4.17;1.70;;;;;;;13.18;100.00;96084.59;5029572;28;20211;-83
2022/10/15 07:48:19;;;;;;;2.47;1.80;;;;;;;13.11;100.00;96092.03;5027936;28;20214;-82
2022/10/15 07:50:46;;;;;;;3.30;2.07;;;;;;;13.06;100.00;96083.84;5033190;28;20214;-82
2022/10/15 07:53:14;;;;;;;3.33;2.80;;;;;;;13.01;100.00;96073.78;5035845;28;20190;-85
2022/10/15 07:55:42;;;;;;;5.17;3.30;;;;;;;13.03;100.00;96076.22;5046690;28;20195;-83
2022/10/15 07:58:09;;;;;;;5.93;2.20;;;;;;;13.09;100.00;96084.19;5032383;28;20211;-83
2022/10/15 08:00:37;;;;;;;3.80;1.73;;;;;;;13.15;100.00;96082.38;5028855;28;20210;-83
2022/10/15 08:03:04;;;;;;;2.30;1.87;;;;;;;13.11;100.00;96071.19;5024991;28;20206;-83
2022/10/15 08:05:32;;;;;;;1.87;1.60;;;;;;;13.19;100.00;96091.63;5038052;28;20210;-83
2022/10/15 08:07:59;;;;;;;2.83;1.93;;;;;;;13.20;100.00;96095.97;5026789;28;20210;-83
2022/10/15 08:10:26;;;;;;;4.73;1.83;;;;;;;13.24;100.00;96089.00;5036700;28;20225;-81
2022/10/15 08:12:53;;;;;;;2.87;2.10;;;;;;;13.23;100.00;96095.47;5030388;28;20202;-81
2022/10/15 08:15:20;;;;;;;2.90;2.17;;;;;;;13.21;100.00;96097.63;5025614;28;20219;-80
2022/10/15 08:17:49;;;;;;;5.23;2.20;;;;;;;13.20;100.00;96096.81;5036520;28;20217;-81
2022/10/15 08:20:17;;;;;;;3.90;2.30;;;;;;;13.32;100.00;96114.84;5035712;28;20228;-81
2022/10/15 08:22:44;;;;;;;2.50;1.70;;;;;;;13.31;100.00;96100.47;5046446;28;20203;-83
2022/10/15 08:25:11;;;;;;;4.73;1.90;;;;;;;13.33;100.00;96117.31;5032468;28;20202;-83
2022/10/15 08:27:38;;;;;;;3.10;1.50;;;;;;;13.25;100.00;96105.00;5031595;28;20199;-83
2022/10/15 08:30:06;;;;;;;2.30;1.50;;;;;;;13.34;100.00;96113.53;5035045;28;20203;-82
2022/10/15 08:32:33;;;;;;;3.67;1.80;;;;;;;13.38;100.00;96119.25;5028188;28;20195;-83
2022/10/15 08:35:02;;;;;;;3.47;2.60;;;;;;;13.41;100.00;96110.63;5029974;28;20223;-83
2022/10/15 08:37:32;;;;;;;5.27;1.87;;;;;;;13.40;100.00;96092.69;5052642;28;20222;-83
2022/10/15 08:39:59;;;;;;;3.53;1.90;;;;;;;13.47;100.00;96096.84;5030291;28;20231;-82
2022/10/15 08:42:32;;;;;;;3.97;2.50;;;;;;;13.45;100.00;96093.56;5032072;28;20202;-84
2022/10/15 08:45:03;;;;;;;3.90;2.20;;;;;;;13.56;100.00;96100.75;5033004;28;20292;-83
2022/10/15 08:47:37;;;;;;;4.07;2.07;;;;;;;13.58;100.00;96092.38;5033774;28;20224;-82
2022/10/15 08:50:17;;;;;;;3.13;1.93;;;;;;;13.50;100.00;96087.41;5024946;28;20250;-82
2022/10/15 08:52:46;;;;;;;3.47;2.00;;;;;;;13.56;100.00;96089.91;5030860;28;20215;-82
2022/10/15 08:55:16;;;;;;;5.23;2.40;;;;;;;13.61;100.00;96089.13;5018452;28;20192;-83
2022/10/15 08:57:48;;;;;;;2.00;1.20;;;;;;;13.61;100.00;96092.66;5031559;28;20257;-81
2022/10/15 09:00:19;;;;;;;4.03;1.47;;;;;;;13.71;100.00;96096.53;5036791;28;20227;-82
2022/10/15 09:02:54;;;;;;;5.60;1.63;;;;;;;13.64;100.00;96099.47;5023282;28;20219;-82
2022/10/15 09:05:36;;;;;;;1.50;1.40;;;;;;;13.74;100.00;96106.91;5030587;28;20257;-81
2022/10/15 09:08:18;;;;;;;2.83;1.70;;;;;;;13.83;100.00;96105.38;5032656;28;20261;-82
2022/10/15 09:10:51;;;;;;;5.43;1.67;;;;;;;13.76;100.00;96100.16;5023883;28;20219;-83
2022/10/15 09:13:24;;;;;;;4.83;1.73;;;;;;;13.84;100.00;96117.88;5041140;28;20202;-84
2022/10/15 09:15:56;;;;;;;4.20;1.50;;;;;;;13.83;100.00;96122.47;5038604;28;20215;-83
2022/10/15 09:18:25;;;;;;;1.90;1.50;;;;;;;13.96;100.00;96151.09;5043919;28;20213;-83
2022/10/15 09:20:55;;;;;;;5.83;1.70;;;;;;;13.96;100.00;96154.63;5032943;28;20325;-83
2022/10/15 09:23:24;;;;;;;3.57;1.53;;;;;;;14.00;100.00;96150.31;5041516;28;20203;-82
2022/10/15 09:26:00;;;;;;;3.67;2.40;;;;;;;14.00;100.00;96155.75;5038354;28;20199;-81
2022/10/15 09:28:37;;;;;;;8.47;2.80;;;;;;;14.04;100.00;96150.63;5025173;28;20210;-82
2022/10/15 09:31:07;;;;;;;4.10;2.50;;;;;;;14.01;100.00;96134.88;5037760;28;20301;-81
2022/10/15 09:33:40;;;;;;;3.30;2.13;;;;;;;14.09;100.00;96147.97;5055731;28;20238;-81
2022/10/15 09:36:19;;;;;;;5.30;2.07;;;;;;;14.14;100.00;96144.47;5041138;28;20238;-81
2022/10/15 09:38:58;;;;;;;3.30;2.70;;;;;;;14.14;100.00;96139.03;5042581;28;20206;-83
2022/10/15 09:41:33;;;;;;;7.23;2.40;;;;;;;14.19;100.00;96145.34;5056370;28;20260;-81
2022/10/15 09:44:02;;;;;;;6.60;2.63;;;;;;;14.20;100.00;96138.84;5047224;28;20345;-82
2022/10/15 09:46:44;;;;;;;3.27;2.60;;;;;;;14.28;100.00;96141.09;5038928;28;20293;-82
2022/10/15 09:49:18;;;;;;;3.33;2.23;;;;;;;14.33;100.00;96140.31;5016796;28;20215;-82
2022/10/15 09:52:02;;;;;;;7.57;2.20;;;;;;;14.28;100.00;96123.97;5027509;28;20210;-82
2022/10/15 09:54:40;;;;;;;2.83;2.00;;;;;;;14.29;100.00;96115.53;5032417;28;20203;-82
2022/10/15 09:57:09;;;;;;;8.73;2.40;;;;;;;14.44;100.00;96116.78;5030212;28;20225;-82
2022/10/15 09:59:36;;;;;;;2.77;1.97;;;;;;;14.41;100.00;96107.25;5028541;28;20215;-82
2022/10/15 10:02:07;;;;;;;4.70;2.10;;;;;;;14.56;100.00;96110.09;5024446;28;20207;-81
2022/10/15 10:04:37;;;;;;;3.10;2.03;;;;;;;14.67;100.00;96108.25;5031151;28;20191;-82
2022/10/15 10:07:27;;;;;;;2.13;1.77;;;;;;;14.74;100.00;96106.13;5041923;28;20203;-82
2022/10/15 10:09:56;;;;;;;5.53;2.07;;;;;;;14.89;100.00;96110.84;5030155;28;20234;-82
2022/10/15 10:12:27;;;;;;;7.73;2.37;;;;;;;14.79;100.00;96097.22;5034264;28;20198;-82
2022/10/15 10:14:57;;;;;;;3.57;2.00;;;;;;;14.93;100.00;96090.22;5043112;28;20268;-82
2022/10/15 10:17:26;;;;;;;3.87;1.73;;;;;;;15.02;100.00;96100.31;5028048;28;20234;-82
2022/10/15 10:20:13;;;;;;;3.50;1.90;;;;;;;15.01;100.00;96095.16;5023171;28;20218;-82
2022/10/15 10:22:47;;;;;;;5.73;2.03;;;;;;;15.01;100.00;96087.81;5030402;28;20260;-82
2022/10/15 10:25:30;;;;;;;4.40;1.70;;;;;;;15.02;100.00;96081.28;5042989;28;20202;-82
2022/10/15 10:27:59;;;;;;;2.77;1.83;;;;;;;14.95;100.00;96061.69;5034977;28;20229;-82
2022/10/15 10:30:27;;;;;;;2.23;1.70;;;;;;;15.02;100.00;96070.41;5038211;28;20222;-82
2022/10/15 10:33:00;;;;;;;5.00;1.97;;;;;;;15.08;100.00;96058.47;5041106;28;20190;-82
2022/10/15 10:35:36;;;;;;;3.40;2.00;;;;;;;15.33;100.00;96068.63;5047816;28;20198;-82
2022/10/15 10:38:04;;;;;;;3.77;1.60;;;;;;;15.61;100.00;96053.78;5031508;28;20312;-82
2022/10/15 10:40:35;;;;;;;3.90;1.67;;;;;;;15.83;100.00;96054.34;5052564;28;20309;-82
2022/10/15 10:43:19;;;;;;;3.00;1.57;;;;;;;16.01;100.00;96063.06;5053363;28;20205;-82
2022/10/15 10:45:54;;;;;;;5.87;2.40;;;;;;;16.04;100.00;96065.28;5044224;28;20206;-81
2022/10/15 10:48:24;;;;;;;3.43;1.93;;;;;;;16.14;100.00;96073.44;5041601;28;20210;-82
2022/10/15 10:51:03;;;;;;;4.30;1.80;;;;;;;16.19;100.00;96074.25;5039600;28;20202;-82
2022/10/15 10:53:32;;;;;;;2.67;1.80;;;;;;;16.14;100.00;96074.28;5034226;28;20202;-82
2022/10/15 10:56:02;;;;;;;3.13;1.73;;;;;;;16.15;100.00;96075.91;5034014;28;20217;-82
2022/10/15 10:58:33;;;;;;;3.63;1.83;;;;;;;16.20;100.00;96081.34;5031829;28;20207;-82
2022/10/15 11:01:01;;;;;;;1.80;1.50;;;;;;;16.29;100.00;96070.72;5033592;28;20317;-82
2022/10/15 11:03:36;;;;;;;3.40;1.70;;;;;;;16.47;100.00;96078.34;5034540;28;20205;-82
2022/10/15 11:06:31;;;;;;;3.80;2.23;;;;;;;16.61;100.00;96076.72;5037384;28;20217;-82
2022/10/15 11:09:17;;;;;;;6.40;2.23;;;;;;;16.82;100.00;96071.25;5049543;28;20210;-82
2022/10/15 11:11:59;;;;;;;8.63;2.07;;;;;;;16.80;100.00;96073.41;5042940;28;20301;-82
2022/10/15 11:14:34;;;;;;;1.73;1.20;;;;;;;16.82;100.00;96068.50;5036488;28;20202;-83
2022/10/15 11:17:14;;;;;;;3.37;1.40;;;;;;;16.93;100.00;96075.56;5033324;28;20218;-82
2022/10/15 11:19:47;;;;;;;2.30;1.60;;;;;;;16.99;100.00;96088.09;5048446;28;20217;-82
2022/10/15 11:22:28;;;;;;;2.10;1.90;;;;;;;16.95;100.00;96097.91;5048123;28;20238;-83
2022/10/15 11:25:07;;;;;;;2.40;1.70;;;;;;;16.89;100.00;96085.41;5031232;28;20275;-82
2022/10/15 11:27:52;;;;;;;1.93;1.73;;;;;;;16.85;100.00;96078.84;5033252;28;20212;-82
2022/10/15 11:30:35;;;;;;;3.70;1.60;;;;;;;16.83;100.00;96084.59;5046654;28;20203;-82
2022/10/15 11:33:19;;;;;;;3.10;1.53;;;;;;;16.90;100.00;96087.03;5038920;28;20216;-82
2022/10/15 11:35:55;;;;;;;4.63;1.67;;;;;;;16.93;100.00;96086.47;5055954;28;20347;-82
2022/10/15 11:38:34;;;;;;;6.67;1.87;;;;;;;16.88;100.00;96089.22;5037035;28;20198;-82
2022/10/15 11:41:30;;;;;;;3.47;1.60;;;;;;;16.81;100.00;96080.50;5035667;28;20313;-82
2022/10/15 11:44:30;;;;;;;3.83;1.90;;;;;;;16.76;100.00;96070.41;5035452;28;20230;-82
2022/10/15 11:47:15;;;;;;;4.13;1.83;;;;;;;16.77;100.00;96071.22;5047782;28;20206;-82